createdAt,value
2019-05-06T00:01:26.416Z,2.95
2019-05-06T00:05:47.229Z,2.60
2019-05-06T00:10:21.684Z,3.35
2019-05-06T00:14:43.666Z,3.20
2019-05-06T00:19:04.812Z,2.90
2019-05-06T00:23:26.096Z,2.42
2019-05-06T00:27:46.829Z,3.60
2019-05-06T00:32:07.398Z,2.98
2019-05-06T00:36:28.461Z,2.60
2019-05-06T00:40:48.796Z,3.30
2019-05-06T00:45:09.086Z,3.52
2019-05-06T00:49:29.765Z,3.95
2019-05-06T00:53:50.681Z,3.80
2019-05-06T00:58:10.844Z,3.55
2019-05-06T01:02:31.416Z,3.45
2019-05-06T01:06:51.793Z,4.10
2019-05-06T01:11:14.277Z,3.30
2019-05-06T01:15:34.587Z,3.83
2019-05-06T01:19:54.683Z,3.50
2019-05-06T01:24:15.407Z,3.70
2019-05-06T01:28:35.880Z,3.60
2019-05-06T01:32:56.145Z,3.95
2019-05-06T01:37:16.523Z,4.17
2019-05-06T01:41:37.384Z,4.28
2019-05-06T01:45:57.944Z,4.10
2019-05-06T01:50:18.721Z,4.67
2019-05-06T01:54:38.999Z,5.03
2019-05-06T01:58:59.577Z,4.83
2019-05-06T02:03:20.308Z,4.53
2019-05-06T02:07:40.451Z,4.58
2019-05-06T02:12:00.751Z,6.15
2019-05-06T02:16:21.311Z,5.90
2019-05-06T02:20:41.740Z,6.10
2019-05-06T02:25:04.301Z,6.15
2019-05-06T02:29:24.780Z,5.12
2019-05-06T02:33:45.051Z,6.17
2019-05-06T02:38:05.504Z,5.90
2019-05-06T02:42:25.963Z,6.20
2019-05-06T02:46:46.519Z,5.87
2019-05-06T02:51:06.929Z,5.72
2019-05-06T02:55:27.774Z,5.85
2019-05-06T02:59:47.979Z,5.58
2019-05-06T03:04:08.321Z,6.08
2019-05-06T03:08:28.986Z,5.65
2019-05-06T03:12:50.042Z,5.72
2019-05-06T03:17:10.303Z,6.28
2019-05-06T03:21:36.670Z,6.58
2019-05-06T03:25:53.573Z,6.87
2019-05-06T03:30:16.662Z,5.42
2019-05-06T03:34:57.975Z,6.35
2019-05-06T03:38:59.578Z,6.55
2019-05-06T03:43:23.107Z,7.37
2019-05-06T03:47:43.616Z,6.22
2019-05-06T03:52:04.082Z,7.20
2019-05-06T03:56:25.361Z,7.40
2019-05-06T04:00:46.474Z,7.10
2019-05-06T04:05:07.362Z,7.87
2019-05-06T04:09:27.633Z,6.83
2019-05-06T04:13:47.956Z,7.10
2019-05-06T04:18:08.696Z,6.53
2019-05-06T04:22:29.103Z,7.40
2019-05-06T04:26:53.378Z,6.40
2019-05-06T04:31:13.620Z,6.72
2019-05-06T04:35:34.824Z,6.45
2019-05-06T04:39:55.178Z,7.35
2019-05-06T04:44:17.185Z,6.10
2019-05-06T04:48:37.682Z,6.37
2019-05-06T04:52:58.966Z,6.53
2019-05-06T04:57:19.719Z,6.35
2019-05-06T05:01:40.190Z,6.83
2019-05-06T05:06:03.020Z,6.45
2019-05-06T05:10:23.670Z,6.10
2019-05-06T05:14:44.604Z,6.17
2019-05-06T05:19:04.968Z,5.50
2019-05-06T05:23:25.514Z,6.17
2019-05-06T05:27:46.617Z,6.78
2019-05-06T05:32:06.835Z,6.70
2019-05-06T05:36:27.626Z,6.15
2019-05-06T05:40:48.667Z,5.92
2019-05-06T05:45:09.041Z,6.62
2019-05-06T05:49:32.336Z,6.83
2019-05-06T05:53:53.109Z,6.85
2019-05-06T05:58:14.306Z,6.47
2019-05-06T06:02:35.059Z,7.55
2019-05-06T06:06:56.209Z,7.28
2019-05-06T06:11:17.094Z,6.55
2019-05-06T06:15:38.106Z,7.47
2019-05-06T06:19:59.192Z,5.92
2019-05-06T06:24:22.535Z,7.25
2019-05-06T06:28:42.927Z,7.35
2019-05-06T06:33:03.452Z,7.30
2019-05-06T06:37:25.448Z,6.03
2019-05-06T06:41:47.028Z,6.37
2019-05-06T06:46:09.400Z,7.35
2019-05-06T06:50:30.140Z,7.17
2019-05-06T06:54:52.737Z,7.28
2019-05-06T06:59:15.146Z,6.47
2019-05-06T07:03:37.069Z,7.08
2019-05-06T07:07:57.660Z,7.95
2019-05-06T07:12:18.515Z,8.13
2019-05-06T07:16:42.871Z,6.20
2019-05-06T07:21:05.403Z,7.80
2019-05-06T07:25:26.391Z,6.90
2019-05-06T07:29:48.066Z,7.75
2019-05-06T07:34:12.009Z,6.87
2019-05-06T07:38:33.340Z,8.15
2019-05-06T07:42:53.802Z,7.55
2019-05-06T07:47:15.912Z,7.95
2019-05-06T07:51:36.338Z,8.05
2019-05-06T07:55:57.601Z,8.38
2019-05-06T08:00:19.788Z,8.30
2019-05-06T08:04:42.093Z,7.37
2019-05-06T08:09:08.256Z,7.80
2019-05-06T08:13:28.899Z,8.08
2019-05-06T08:17:52.360Z,9.73
2019-05-06T08:22:13.632Z,7.92
2019-05-06T08:26:34.880Z,8.03
2019-05-06T08:30:55.951Z,7.85
2019-05-06T08:35:16.868Z,9.48
2019-05-06T08:39:38.160Z,11.22
2019-05-06T08:43:59.068Z,10.25
2019-05-06T08:48:19.545Z,9.53
2019-05-06T08:52:42.457Z,8.48
2019-05-06T08:57:02.728Z,8.85
2019-05-06T09:01:23.512Z,7.65
2019-05-06T09:05:44.190Z,7.80
2019-05-06T09:10:07.446Z,8.53
2019-05-06T09:14:28.332Z,8.68
2019-05-06T09:18:48.533Z,8.50
2019-05-06T09:23:12.284Z,8.63
2019-05-06T09:27:32.804Z,7.67
2019-05-06T09:31:53.594Z,5.47
2019-05-06T09:36:14.469Z,5.75
2019-05-06T09:40:35.547Z,5.20
2019-05-06T09:44:55.997Z,5.78
2019-05-06T09:49:16.608Z,4.33
2019-05-06T09:53:38.246Z,5.83
2019-05-06T09:57:59.829Z,4.97
2019-05-06T10:02:23.078Z,5.42
2019-05-06T10:06:55.782Z,5.67
2019-05-06T10:11:06.595Z,5.17
2019-05-06T10:15:27.282Z,5.05
2019-05-06T10:19:47.524Z,5.90
2019-05-06T10:24:08.320Z,6.85
2019-05-06T10:28:29.354Z,5.92
2019-05-06T10:32:50.164Z,7.15
2019-05-06T10:37:19.726Z,6.35
2019-05-06T10:41:44.409Z,6.40
2019-05-06T10:46:06.119Z,6.80
2019-05-06T10:50:26.593Z,7.37
2019-05-06T10:54:47.136Z,7.42
2019-05-06T10:59:08.211Z,7.78
2019-05-06T11:03:28.952Z,6.42
2019-05-06T11:07:52.165Z,6.37
2019-05-06T11:12:12.565Z,7.22
2019-05-06T11:16:34.141Z,8.95
2019-05-06T11:20:56.319Z,8.58
2019-05-06T11:25:17.198Z,7.55
2019-05-06T11:29:38.207Z,9.18
2019-05-06T11:33:59.446Z,8.70
2019-05-06T11:38:20.016Z,10.23
2019-05-06T11:42:40.198Z,9.45
2019-05-06T11:47:03.231Z,9.10
2019-05-06T11:51:23.356Z,8.98
2019-05-06T11:55:43.793Z,10.28
2019-05-06T12:00:05.063Z,9.05
2019-05-06T12:04:25.483Z,9.00
2019-05-06T12:08:46.318Z,7.47
2019-05-06T12:13:07.124Z,9.33
2019-05-06T12:17:28.644Z,6.60
2019-05-06T12:21:49.784Z,8.95
2019-05-06T12:26:13.061Z,8.00
2019-05-06T12:30:33.368Z,7.47
2019-05-06T12:34:53.668Z,6.30
2019-05-06T12:39:16.039Z,6.62
2019-05-06T12:43:36.344Z,6.65
2019-05-06T12:47:56.868Z,6.17
2019-05-06T12:52:17.423Z,5.87
2019-05-06T12:56:38.589Z,5.83
2019-05-06T13:00:58.645Z,5.33
2019-05-06T13:05:19.025Z,5.08
2019-05-06T13:09:42.491Z,4.83
2019-05-06T13:14:04.207Z,4.83
2019-05-06T13:18:25.278Z,5.05
2019-05-06T13:22:46.352Z,4.58
2019-05-06T13:27:08.339Z,5.62
2019-05-06T13:31:28.668Z,5.30
2019-05-06T13:35:49.876Z,5.00
2019-05-06T13:40:10.823Z,5.50
2019-05-06T13:44:32.249Z,5.17
2019-05-06T13:48:57.307Z,6.42
2019-05-06T13:53:16.379Z,6.10
2019-05-06T13:57:39.357Z,6.22
2019-05-06T14:02:07.201Z,5.55
2019-05-06T14:06:28.436Z,5.37
2019-05-06T14:10:59.023Z,6.37
2019-05-06T14:15:12.504Z,6.72
2019-05-06T14:19:34.287Z,5.92
2019-05-06T14:23:55.023Z,5.45
2019-05-06T14:28:16.286Z,6.75
2019-05-06T14:32:37.270Z,6.78
2019-05-06T14:36:58.643Z,6.47
2019-05-06T14:41:19.025Z,6.95
2019-05-06T14:45:42.224Z,6.60
2019-05-06T14:50:04.013Z,6.80
2019-05-06T14:54:25.267Z,5.85
2019-05-06T14:58:45.507Z,6.65
2019-05-06T15:03:06.540Z,8.28
2019-05-06T15:07:26.728Z,5.67
2019-05-06T15:11:48.283Z,6.65
2019-05-06T15:16:09.346Z,7.67
2019-05-06T15:20:30.486Z,6.40
2019-05-06T15:24:53.538Z,6.40
2019-05-06T15:29:18.211Z,6.80
2019-05-06T15:33:40.235Z,6.12
2019-05-06T15:38:02.256Z,6.70
2019-05-06T15:42:23.429Z,5.80
2019-05-06T15:46:45.397Z,8.08
2019-05-06T15:51:05.559Z,7.05
2019-05-06T15:55:28.431Z,6.22
2019-05-06T15:59:48.588Z,6.92
2019-05-06T16:04:08.971Z,7.65
2019-05-06T16:08:29.554Z,7.00
2019-05-06T16:12:52.974Z,7.70
2019-05-06T16:17:15.217Z,8.98
2019-05-06T16:21:35.941Z,9.63
2019-05-06T16:25:56.370Z,9.80
2019-05-06T16:30:17.813Z,9.18
2019-05-06T16:34:38.536Z,8.23
2019-05-06T16:38:59.496Z,9.63
2019-05-06T16:43:22.143Z,9.30
2019-05-06T16:47:44.814Z,10.10
2019-05-06T16:52:05.572Z,8.73
2019-05-06T16:56:27.213Z,9.23
2019-05-06T17:00:48.178Z,8.20
2019-05-06T17:05:08.941Z,10.03
2019-05-06T17:09:29.710Z,10.93
2019-05-06T17:13:51.874Z,10.58
2019-05-06T17:18:12.416Z,12.10
2019-05-06T17:22:33.132Z,10.50
2019-05-06T17:26:56.264Z,11.45
2019-05-06T17:31:16.291Z,10.80
2019-05-06T17:35:37.128Z,10.72
2019-05-06T17:40:08.035Z,10.78
2019-05-06T17:44:22.798Z,10.65
2019-05-06T17:48:43.607Z,9.55
2019-05-06T17:53:04.355Z,12.23
2019-05-06T17:57:25.269Z,12.37
2019-05-06T18:01:46.429Z,12.88
2019-05-06T18:06:13.674Z,19.95
2019-05-06T18:10:29.963Z,17.60
2019-05-06T18:14:53.189Z,15.90
2019-05-06T18:19:13.439Z,13.78
2019-05-06T18:23:34.467Z,12.75
2019-05-06T18:27:55.575Z,13.93
2019-05-06T18:32:16.139Z,13.28
2019-05-06T18:36:37.145Z,13.13
2019-05-06T18:40:58.129Z,12.30
2019-05-06T18:45:18.663Z,13.50
2019-05-06T18:49:38.849Z,13.90
2019-05-06T18:54:00.055Z,14.70
2019-05-06T18:58:22.349Z,14.83
2019-05-06T19:02:42.986Z,14.35
2019-05-06T19:07:10.700Z,13.22
2019-05-06T19:11:26.035Z,13.08
2019-05-06T19:15:46.821Z,13.55
2019-05-06T19:20:07.616Z,11.88
2019-05-06T19:24:27.917Z,12.63
2019-05-06T19:28:48.828Z,13.25
2019-05-06T19:33:12.385Z,12.55
2019-05-06T19:37:33.376Z,12.18
2019-05-06T19:41:54.006Z,11.78
2019-05-06T19:46:15.013Z,12.90
2019-05-06T19:50:36.884Z,12.13
2019-05-06T19:54:57.113Z,13.62
2019-05-06T19:59:17.515Z,13.20
2019-05-06T20:03:39.202Z,13.28
2019-05-06T20:07:59.630Z,13.25
2019-05-06T20:12:20.568Z,12.60
2019-05-06T20:16:41.993Z,13.03
2019-05-06T20:21:02.849Z,12.90
2019-05-06T20:25:23.485Z,13.28
2019-05-06T20:29:44.075Z,12.28
2019-05-06T20:34:05.934Z,11.93
2019-05-06T20:38:26.798Z,12.53
2019-05-06T20:42:47.697Z,12.37
2019-05-06T20:47:08.334Z,12.28
2019-05-06T20:51:29.084Z,13.43
2019-05-06T20:55:53.046Z,12.00
2019-05-06T21:00:14.239Z,12.43
2019-05-06T21:04:34.658Z,12.25
2019-05-06T21:08:55.170Z,11.25
2019-05-06T21:13:31.411Z,11.43
2019-05-06T21:17:46.054Z,11.35
2019-05-06T21:22:07.909Z,11.12
2019-05-06T21:26:28.661Z,11.40
2019-05-06T21:30:49.466Z,11.40
2019-05-06T21:35:12.555Z,11.05
2019-05-06T21:39:34.049Z,10.50
2019-05-06T21:43:54.306Z,10.93
2019-05-06T21:48:14.827Z,9.88
2019-05-06T21:52:39.571Z,11.75
2019-05-06T21:56:58.632Z,10.90
2019-05-06T22:01:22.042Z,10.95
2019-05-06T22:05:43.144Z,11.73
2019-05-06T22:10:04.266Z,11.75
2019-05-06T22:14:24.973Z,10.93
2019-05-06T22:18:45.678Z,11.40
2019-05-06T22:23:06.837Z,12.20
2019-05-06T22:27:28.140Z,12.35
2019-05-06T22:31:48.775Z,11.63
2019-05-06T22:36:10.077Z,19.27
2019-05-06T22:40:32.733Z,12.98
2019-05-06T22:44:53.681Z,12.63
2019-05-06T22:49:14.678Z,12.73
2019-05-06T22:53:35.164Z,12.07
2019-05-06T22:57:55.940Z,12.80
2019-05-06T23:02:16.607Z,12.25
2019-05-06T23:06:37.062Z,12.37
2019-05-06T23:10:58.163Z,11.88
2019-05-06T23:15:18.603Z,11.93
2019-05-06T23:19:39.827Z,13.28
2019-05-06T23:24:02.158Z,12.13
2019-05-06T23:28:22.762Z,12.13
2019-05-06T23:32:43.422Z,14.05
2019-05-06T23:37:22.986Z,12.37
2019-05-06T23:42:22.700Z,13.93
2019-05-06T23:47:19.425Z,12.87
2019-05-06T23:52:16.753Z,12.75
2019-05-06T23:56:39.305Z,13.90
